LYBE/BEG METAR and TAF weather

Enter ICAO airport designator
Station Type Date Time Source
LYBE METAR 2024/02/21 02:30 UTC NOAA

LYBE 210230Z 25004KT 220V280 CAVOK 06/04 Q1024 NOSIG


Station Type Date Time Source
LYBE Decoded METAR 2024/02/21 02:30 UTC NOAA

Beograd / Surcin, Serbia and Montenegro (LYBE) 44-49N 020-17E 99M
Feb 20, 2024 - 09:30 PM EST / 2024.02.21 0230 UTC
Wind: from the WSW (250 degrees) at 5 MPH (4 KT) (direction variable):0
Visibility: greater than 7 mile(s):0
Temperature: 42 F (6 C)
Dew Point: 39 F (4 C)
Relative Humidity: 86%
Pressure (altimeter): 30.24 in. Hg (1024 hPa)
ob: LYBE 210230Z 25004KT 220V280 CAVOK 06/04 Q1024 NOSIG
cycle: 2

Station Type Date Time Source
LYBE TAF 2024/02/20 18:23 UTC NOAA

TAF LYBE 201700Z 2018/2118 26005KT 9999 SCT040 TX12/2113Z TN05/2106Z
TEMPO 2103/2107 4000 BR BKN012 BKN035 PROB30
TEMPO 2111/2114 30015KT 4000 SHRA SCT025TCU BKN030

Example: see airport list